createdAt,value
2023-11-05T00:00:41.567Z,0.70
2023-11-05T00:03:09.884Z,0.50
2023-11-05T00:05:38.201Z,0.40
2023-11-05T00:08:07.395Z,0.60
2023-11-05T00:10:35.672Z,0.57
2023-11-05T00:13:05.384Z,0.40
2023-11-05T00:15:33.720Z,0.50
2023-11-05T00:18:01.962Z,0.53
2023-11-05T00:20:30.232Z,1.50
2023-11-05T00:22:58.738Z,1.70
2023-11-05T00:25:27.033Z,0.50
2023-11-05T00:27:55.285Z,0.57
2023-11-05T00:30:24.891Z,0.50
2023-11-05T00:32:53.198Z,0.50
2023-11-05T00:35:21.510Z,1.00
2023-11-05T00:37:49.777Z,1.07
2023-11-05T00:40:18.113Z,0.50
2023-11-05T00:42:46.380Z,0.50
2023-11-05T00:45:14.899Z,0.60
2023-11-05T00:47:44.694Z,0.80
2023-11-05T00:50:12.956Z,0.60
2023-11-05T00:52:41.244Z,0.50
2023-11-05T00:55:10.660Z,2.53
2023-11-05T00:57:38.957Z,0.53
2023-11-05T01:00:16.660Z,0.70
2023-11-05T01:02:53.061Z,1.50
2023-11-05T01:05:21.499Z,0.70
2023-11-05T01:07:50.991Z,0.60
2023-11-05T01:10:19.373Z,0.80
2023-11-05T01:12:47.626Z,0.70
2023-11-05T01:15:15.928Z,0.50
2023-11-05T01:17:44.300Z,0.77
2023-11-05T01:20:14.249Z,1.27
2023-11-05T01:22:42.487Z,1.53
2023-11-05T01:25:11.608Z,0.80
2023-11-05T01:27:40.027Z,0.73
2023-11-05T01:30:10.631Z,0.63
2023-11-05T01:32:38.948Z,1.40
2023-11-05T01:35:08.418Z,3.40
2023-11-05T01:37:38.159Z,0.90
2023-11-05T01:40:07.543Z,1.03
2023-11-05T01:42:35.820Z,1.40
2023-11-05T01:45:04.652Z,1.40
2023-11-05T01:47:32.923Z,2.23
2023-11-05T01:50:01.509Z,2.57
2023-11-05T01:52:30.237Z,4.10
2023-11-05T01:54:59.995Z,1.70
2023-11-05T01:57:28.349Z,1.53
2023-11-05T01:59:56.728Z,1.73
2023-11-05T02:02:25.720Z,4.17
2023-11-05T02:04:54.208Z,4.63
2023-11-05T02:07:22.496Z,2.00
2023-11-05T02:09:50.765Z,6.50
2023-11-05T02:12:21.578Z,2.23
2023-11-05T02:14:53.543Z,8.57
2023-11-05T02:17:22.173Z,2.20
2023-11-05T02:19:50.882Z,2.37
2023-11-05T02:22:20.699Z,2.20
2023-11-05T02:24:50.391Z,2.33
2023-11-05T02:27:18.717Z,5.10
2023-11-05T02:29:49.768Z,3.27
2023-11-05T02:32:18.385Z,5.40
2023-11-05T02:34:49.382Z,4.40
2023-11-05T02:37:17.744Z,4.83
2023-11-05T02:39:46.005Z,3.30
2023-11-05T02:42:15.660Z,2.60
2023-11-05T02:44:44.669Z,4.23
2023-11-05T02:47:12.973Z,3.73
2023-11-05T02:49:41.289Z,2.40
2023-11-05T02:52:09.601Z,2.30
2023-11-05T02:54:37.905Z,5.67
2023-11-05T02:57:06.291Z,2.90
2023-11-05T02:59:36.049Z,2.30
2023-11-05T03:02:04.309Z,2.43
2023-11-05T03:04:32.795Z,4.03
2023-11-05T03:07:01.204Z,2.80
2023-11-05T03:09:29.925Z,2.40
2023-11-05T03:11:58.163Z,2.60
2023-11-05T03:14:26.839Z,3.60
2023-11-05T03:16:58.092Z,2.13
2023-11-05T03:19:26.804Z,3.00
2023-11-05T03:21:55.111Z,4.67
2023-11-05T03:24:23.671Z,3.33
2023-11-05T03:26:52.082Z,2.97
2023-11-05T03:29:20.443Z,6.13
2023-11-05T03:31:50.923Z,3.17
2023-11-05T03:34:21.136Z,5.50
2023-11-05T03:36:49.735Z,3.10
2023-11-05T03:39:19.086Z,7.40
2023-11-05T03:41:47.330Z,3.60
2023-11-05T03:44:16.289Z,3.70
2023-11-05T03:46:44.611Z,3.93
2023-11-05T03:49:12.913Z,5.23
2023-11-05T03:51:44.613Z,4.40
2023-11-05T03:54:12.902Z,6.60
2023-11-05T03:56:41.561Z,5.03
2023-11-05T03:59:11.629Z,3.87
2023-11-05T04:01:40.095Z,5.33
2023-11-05T04:04:11.218Z,4.43
2023-11-05T04:06:39.826Z,3.27
2023-11-05T04:09:09.666Z,3.73
2023-11-05T04:11:38.624Z,3.17
2023-11-05T04:14:06.936Z,3.60
2023-11-05T04:16:35.234Z,3.13
2023-11-05T04:19:03.536Z,3.33
2023-11-05T04:21:31.788Z,2.83
2023-11-05T04:24:00.037Z,5.73
2023-11-05T04:26:30.140Z,3.33
2023-11-05T04:28:58.735Z,3.57
2023-11-05T04:31:27.111Z,2.83
2023-11-05T04:33:55.452Z,5.57
2023-11-05T04:36:23.704Z,3.93
2023-11-05T04:38:51.982Z,4.30
2023-11-05T04:41:22.556Z,2.93
2023-11-05T04:43:52.326Z,3.17
2023-11-05T04:46:22.810Z,3.63
2023-11-05T04:48:51.651Z,3.27
2023-11-05T04:51:19.954Z,3.37
2023-11-05T04:53:48.200Z,3.77
2023-11-05T04:56:19.605Z,3.43
2023-11-05T04:58:47.868Z,3.20
2023-11-05T05:01:17.720Z,4.10
2023-11-05T05:03:46.046Z,4.87
2023-11-05T05:06:14.350Z,3.10
2023-11-05T05:08:42.585Z,3.23
2023-11-05T05:11:11.332Z,3.97
2023-11-05T05:13:40.178Z,4.60
2023-11-05T05:16:13.193Z,5.00
2023-11-05T05:18:43.866Z,3.37
2023-11-05T05:21:12.138Z,3.37
2023-11-05T05:23:40.617Z,3.27
2023-11-05T05:26:10.345Z,3.60
2023-11-05T05:28:38.634Z,3.17
2023-11-05T05:31:07.291Z,5.33
2023-11-05T05:33:35.606Z,4.13
2023-11-05T05:36:05.926Z,3.60
2023-11-05T05:38:34.474Z,5.67
2023-11-05T05:41:02.728Z,4.47
2023-11-05T05:43:30.975Z,4.50
2023-11-05T05:45:59.246Z,5.03
2023-11-05T05:48:29.055Z,3.63
2023-11-05T05:50:58.017Z,5.10
2023-11-05T05:53:31.191Z,6.00
2023-11-05T05:55:59.545Z,5.37
2023-11-05T05:58:29.263Z,4.07
2023-11-05T06:00:57.695Z,5.10
2023-11-05T06:03:26.085Z,5.23
2023-11-05T06:05:54.493Z,3.30
2023-11-05T06:08:23.520Z,4.47
2023-11-05T06:10:53.145Z,5.73
2023-11-05T06:13:22.061Z,3.50
2023-11-05T06:15:50.362Z,4.03
2023-11-05T06:18:19.767Z,3.60
2023-11-05T06:20:50.754Z,4.77
2023-11-05T06:23:21.406Z,3.90
2023-11-05T06:25:49.697Z,5.60
2023-11-05T06:28:19.412Z,3.30
2023-11-05T06:30:47.694Z,4.50
2023-11-05T06:33:16.031Z,3.70
2023-11-05T06:35:44.521Z,4.00
2023-11-05T06:38:12.825Z,5.17
2023-11-05T06:40:41.114Z,3.47
2023-11-05T06:43:09.373Z,6.13
2023-11-05T06:45:39.015Z,3.70
2023-11-05T06:48:07.630Z,4.97
2023-11-05T06:50:35.929Z,3.63
2023-11-05T06:53:04.284Z,4.00
2023-11-05T06:55:32.555Z,3.50
2023-11-05T06:58:00.973Z,3.03
2023-11-05T07:00:29.430Z,4.33
2023-11-05T07:02:59.120Z,5.63
2023-11-05T07:05:27.537Z,4.63
2023-11-05T07:07:56.529Z,3.87
2023-11-05T07:10:25.901Z,3.43
2023-11-05T07:12:54.565Z,3.30
2023-11-05T07:15:22.825Z,7.53
2023-11-05T07:17:51.415Z,3.40
2023-11-05T07:20:21.224Z,4.33
2023-11-05T07:22:49.524Z,3.47
2023-11-05T07:25:17.919Z,3.13
2023-11-05T07:27:46.171Z,4.97
2023-11-05T07:30:15.714Z,4.13
2023-11-05T07:32:43.983Z,2.90
2023-11-05T07:35:12.247Z,3.63
2023-11-05T07:37:41.975Z,2.70
2023-11-05T07:40:12.896Z,2.93
2023-11-05T07:42:42.347Z,2.70
2023-11-05T07:45:11.655Z,3.50
2023-11-05T07:47:40.763Z,2.90
2023-11-05T07:50:12.070Z,4.77
2023-11-05T07:52:43.977Z,3.67
2023-11-05T07:55:13.189Z,3.10
2023-11-05T07:57:41.690Z,3.77
2023-11-05T08:00:16.471Z,3.30
2023-11-05T08:02:44.990Z,3.63
2023-11-05T08:05:13.479Z,3.37
2023-11-05T08:07:43.505Z,2.77
2023-11-05T08:10:12.046Z,3.10
2023-11-05T08:12:41.558Z,5.07
2023-11-05T08:15:13.555Z,4.30
2023-11-05T08:17:42.794Z,3.20
2023-11-05T08:20:15.930Z,6.37
2023-11-05T08:22:46.139Z,4.80
2023-11-05T08:25:15.327Z,9.57
2023-11-05T08:27:43.977Z,3.60
2023-11-05T08:30:14.536Z,3.07
2023-11-05T08:32:44.074Z,4.07
2023-11-05T08:35:12.954Z,3.50
2023-11-05T08:37:42.599Z,3.47
2023-11-05T08:40:15.659Z,5.87
2023-11-05T08:42:44.496Z,4.97
2023-11-05T08:45:13.398Z,6.53
2023-11-05T08:47:41.684Z,4.57
2023-11-05T08:50:10.968Z,3.33
2023-11-05T08:52:39.498Z,3.83
2023-11-05T08:55:11.522Z,5.53
2023-11-05T08:57:41.144Z,3.90
2023-11-05T09:00:13.709Z,4.10
2023-11-05T09:02:42.832Z,5.50
2023-11-05T09:05:12.165Z,3.80
2023-11-05T09:07:40.598Z,5.73
2023-11-05T09:10:13.522Z,6.43
2023-11-05T09:12:43.353Z,6.97
2023-11-05T09:15:12.741Z,6.13
2023-11-05T09:17:41.310Z,5.70
2023-11-05T09:20:11.793Z,6.63
2023-11-05T09:22:40.853Z,5.67
2023-11-05T09:25:10.159Z,6.77
2023-11-05T09:27:39.095Z,10.93
2023-11-05T09:30:13.488Z,15.03
2023-11-05T09:32:43.670Z,5.43
2023-11-05T09:35:14.862Z,8.60
2023-11-05T09:37:45.668Z,6.17
2023-11-05T09:40:15.569Z,6.23
2023-11-05T09:42:47.506Z,6.90
2023-11-05T09:45:18.901Z,6.93
2023-11-05T09:47:48.150Z,7.90
2023-11-05T09:50:16.631Z,5.77
2023-11-05T09:52:45.007Z,5.57
2023-11-05T09:55:13.398Z,7.77
2023-11-05T09:57:41.737Z,9.40
2023-11-05T10:00:11.159Z,4.60
2023-11-05T10:02:59.337Z,13.77
2023-11-05T10:05:30.358Z,6.63
2023-11-05T10:07:58.717Z,8.07
2023-11-05T10:10:27.818Z,7.70
2023-11-05T10:12:56.260Z,6.73
2023-11-05T10:15:25.601Z,5.90
2023-11-05T10:17:57.202Z,6.67
2023-11-05T10:20:27.961Z,8.53
2023-11-05T10:23:03.186Z,5.80
2023-11-05T10:25:32.255Z,6.67
2023-11-05T10:28:01.066Z,8.50
2023-11-05T10:30:32.261Z,7.37
2023-11-05T10:33:03.735Z,5.50
2023-11-05T10:35:34.151Z,5.80
2023-11-05T10:38:04.312Z,8.97
2023-11-05T10:40:33.026Z,7.73
2023-11-05T10:43:01.680Z,6.13
2023-11-05T10:45:30.578Z,4.10
2023-11-05T10:47:58.859Z,5.13
2023-11-05T10:50:30.575Z,4.17
2023-11-05T10:53:01.696Z,5.70
2023-11-05T10:55:34.539Z,7.73
2023-11-05T10:58:14.587Z,3.80
2023-11-05T11:01:04.538Z,4.33
2023-11-05T11:03:33.053Z,5.40
2023-11-05T11:06:08.218Z,3.67
2023-11-05T11:08:37.672Z,5.47
2023-11-05T11:11:23.925Z,5.87
2023-11-05T11:13:57.891Z,6.90
2023-11-05T11:16:30.458Z,6.93
2023-11-05T11:19:05.816Z,5.10
2023-11-05T11:21:35.599Z,5.57
2023-11-05T11:24:22.046Z,5.67
2023-11-05T11:26:50.325Z,7.00
2023-11-05T11:29:20.392Z,3.60
2023-11-05T11:31:48.892Z,3.83
2023-11-05T11:34:21.769Z,3.50
2023-11-05T11:37:00.293Z,3.97
2023-11-05T11:39:29.581Z,3.50
2023-11-05T11:41:58.844Z,5.10
2023-11-05T11:44:28.623Z,3.50
2023-11-05T11:46:57.353Z,2.67
2023-11-05T11:49:30.092Z,3.90
2023-11-05T11:51:59.877Z,4.20
2023-11-05T11:54:30.403Z,2.57
2023-11-05T11:56:59.442Z,2.83
2023-11-05T11:59:27.883Z,3.87
2023-11-05T12:01:57.737Z,2.90
2023-11-05T12:04:27.244Z,4.07
2023-11-05T12:06:55.540Z,3.87
2023-11-05T12:09:27.071Z,2.77
2023-11-05T12:11:56.074Z,3.73
2023-11-05T12:14:24.984Z,3.50
2023-11-05T12:16:54.314Z,3.83
2023-11-05T12:19:23.285Z,4.70
2023-11-05T12:21:52.080Z,3.17
2023-11-05T12:24:20.412Z,2.90
2023-11-05T12:26:52.205Z,2.83
2023-11-05T12:29:22.362Z,3.00
2023-11-05T12:31:50.753Z,5.10
2023-11-05T12:34:19.043Z,5.17
2023-11-05T12:36:47.664Z,5.27
2023-11-05T12:39:15.916Z,3.73
2023-11-05T12:41:44.210Z,5.97
2023-11-05T12:44:13.854Z,5.10
2023-11-05T12:46:42.610Z,8.63
2023-11-05T12:49:10.991Z,6.70
2023-11-05T12:51:39.272Z,5.13
2023-11-05T12:54:08.014Z,8.47
2023-11-05T12:56:36.283Z,5.67
2023-11-05T12:59:04.681Z,5.37
2023-11-05T13:01:34.385Z,4.77
2023-11-05T13:04:03.368Z,7.67
2023-11-05T13:06:32.667Z,6.20
2023-11-05T13:09:01.013Z,7.83
2023-11-05T13:11:29.274Z,7.73
2023-11-05T13:13:57.637Z,10.57
2023-11-05T13:16:25.989Z,8.20
2023-11-05T13:18:55.681Z,7.80
2023-11-05T13:21:24.048Z,9.77
2023-11-05T13:23:52.294Z,7.33
2023-11-05T13:26:20.569Z,8.00
2023-11-05T13:28:48.829Z,8.83
2023-11-05T13:31:19.603Z,5.77
2023-11-05T13:33:47.877Z,8.53
2023-11-05T13:36:17.604Z,10.47
2023-11-05T13:38:45.920Z,7.90
2023-11-05T13:41:14.358Z,9.47
2023-11-05T13:43:42.725Z,8.07
2023-11-05T13:46:11.077Z,5.30
2023-11-05T13:48:40.447Z,8.77
2023-11-05T13:51:09.040Z,6.80
2023-11-05T13:53:38.677Z,5.70
2023-11-05T13:56:07.690Z,6.00
2023-11-05T13:58:35.944Z,10.80
2023-11-05T14:01:04.755Z,9.60
2023-11-05T14:03:32.993Z,7.60
2023-11-05T14:06:01.380Z,8.97
2023-11-05T14:08:29.648Z,11.37
2023-11-05T14:10:59.335Z,11.83
2023-11-05T14:13:27.628Z,9.30
2023-11-05T14:15:56.023Z,6.83
2023-11-05T14:18:24.300Z,8.30
2023-11-05T14:20:53.717Z,8.63
2023-11-05T14:23:23.313Z,8.87
2023-11-05T14:25:52.066Z,9.00
2023-11-05T14:28:21.739Z,8.53
2023-11-05T14:30:50.914Z,9.87
2023-11-05T14:33:20.578Z,9.27
2023-11-05T14:35:48.932Z,8.83
2023-11-05T14:38:17.352Z,8.77
2023-11-05T14:40:48.119Z,10.13
2023-11-05T14:43:16.453Z,9.90
2023-11-05T14:45:47.647Z,6.67
2023-11-05T14:48:16.071Z,9.80
2023-11-05T14:50:45.033Z,8.50
2023-11-05T14:53:13.339Z,7.63
2023-11-05T14:55:41.634Z,9.07
2023-11-05T14:58:09.877Z,7.63
2023-11-05T15:00:39.228Z,7.40
2023-11-05T15:03:09.847Z,10.03
2023-11-05T15:05:38.208Z,7.97
2023-11-05T15:08:07.973Z,7.73
2023-11-05T15:10:36.263Z,8.07
2023-11-05T15:13:04.559Z,14.60
2023-11-05T15:15:32.886Z,6.70
2023-11-05T15:18:02.136Z,7.83
2023-11-05T15:20:32.254Z,7.03
2023-11-05T15:23:00.668Z,7.97
2023-11-05T15:25:29.020Z,8.23
2023-11-05T15:27:57.447Z,9.47
2023-11-05T15:30:25.672Z,10.33
2023-11-05T15:32:56.880Z,9.03
2023-11-05T15:35:25.249Z,8.00
2023-11-05T15:37:54.901Z,9.30
2023-11-05T15:40:23.324Z,7.33
2023-11-05T15:42:52.092Z,6.70
2023-11-05T15:45:20.816Z,9.03
2023-11-05T15:47:50.381Z,6.73
2023-11-05T15:50:20.398Z,7.00
2023-11-05T15:52:49.152Z,6.67
2023-11-05T15:55:19.181Z,5.87
2023-11-05T15:57:49.256Z,6.55
2023-11-05T16:00:18.166Z,11.10
2023-11-05T16:02:47.043Z,7.87
2023-11-05T16:05:15.552Z,7.23
2023-11-05T16:07:44.342Z,7.20
2023-11-05T16:10:12.670Z,7.73
2023-11-05T16:12:42.351Z,6.37
2023-11-05T16:15:14.202Z,7.20
2023-11-05T16:17:42.512Z,5.57
2023-11-05T16:20:12.663Z,6.13
2023-11-05T16:22:41.427Z,5.57
2023-11-05T16:25:10.622Z,7.67
2023-11-05T16:27:39.160Z,9.30
2023-11-05T16:30:10.675Z,6.33
2023-11-05T16:32:40.163Z,8.50
2023-11-05T16:35:09.259Z,10.20
2023-11-05T16:37:41.660Z,9.70
2023-11-05T16:40:11.334Z,9.57
2023-11-05T16:42:39.615Z,10.30
2023-11-05T16:45:10.944Z,10.17
2023-11-05T16:47:41.120Z,6.57
2023-11-05T16:50:12.610Z,8.50
2023-11-05T16:52:41.228Z,7.97
2023-11-05T16:55:13.420Z,7.87
2023-11-05T16:57:43.681Z,9.37
2023-11-05T17:00:17.427Z,9.90
2023-11-05T17:02:45.918Z,8.87
2023-11-05T17:05:14.712Z,11.13
2023-11-05T17:07:46.172Z,9.70
2023-11-05T17:10:14.513Z,8.80
2023-11-05T17:12:42.996Z,9.73
2023-11-05T17:15:12.793Z,7.63
2023-11-05T17:17:41.847Z,10.37
2023-11-05T17:20:11.220Z,9.97
2023-11-05T17:22:39.541Z,6.73
2023-11-05T17:25:09.528Z,7.50
2023-11-05T17:27:37.941Z,10.50
2023-11-05T17:30:07.382Z,9.87
2023-11-05T17:32:37.584Z,10.27
2023-11-05T17:35:07.234Z,7.73
2023-11-05T17:37:35.710Z,7.73
2023-11-05T17:40:04.300Z,9.57
2023-11-05T17:42:33.086Z,9.17
2023-11-05T17:45:02.399Z,8.57
2023-11-05T17:47:30.973Z,10.37
2023-11-05T17:50:00.807Z,7.53
2023-11-05T17:52:29.611Z,8.40
2023-11-05T17:54:58.052Z,6.77
2023-11-05T17:57:28.227Z,8.47
2023-11-05T17:59:57.156Z,7.67
2023-11-05T18:02:26.136Z,12.40
2023-11-05T18:04:54.520Z,9.30
2023-11-05T18:07:24.478Z,8.40
2023-11-05T18:09:52.742Z,10.40
2023-11-05T18:12:26.084Z,10.17
2023-11-05T18:14:55.338Z,9.53
2023-11-05T18:17:24.009Z,6.90
2023-11-05T18:19:52.540Z,9.37
2023-11-05T18:22:22.992Z,9.10
2023-11-05T18:24:52.629Z,10.03
2023-11-05T18:27:20.881Z,8.80
2023-11-05T18:29:49.129Z,9.87
2023-11-05T18:32:18.261Z,6.47
2023-11-05T18:34:46.545Z,5.47
2023-11-05T18:37:15.053Z,6.23
2023-11-05T18:39:43.365Z,7.93
2023-11-05T18:42:13.029Z,6.97
2023-11-05T18:44:43.824Z,7.03
2023-11-05T18:47:12.166Z,4.97
2023-11-05T18:49:40.486Z,5.30
2023-11-05T18:52:08.800Z,4.30
2023-11-05T18:54:37.816Z,5.67
2023-11-05T18:57:06.496Z,5.23
2023-11-05T18:59:36.136Z,4.77
2023-11-05T19:02:04.628Z,3.30
2023-11-05T19:04:34.062Z,3.17
2023-11-05T19:07:02.375Z,3.10
2023-11-05T19:09:30.660Z,3.20
2023-11-05T19:11:58.998Z,3.17
2023-11-05T19:14:28.145Z,3.00
2023-11-05T19:16:57.878Z,3.00
2023-11-05T19:19:26.659Z,2.70
2023-11-05T19:21:54.940Z,3.00
2023-11-05T19:24:24.309Z,2.83
2023-11-05T19:26:52.565Z,3.90
2023-11-05T19:29:22.233Z,3.83
2023-11-05T19:31:50.804Z,2.93
2023-11-05T19:34:20.491Z,2.70
2023-11-05T19:36:48.786Z,11.70
2023-11-05T19:39:17.273Z,3.20
2023-11-05T19:41:47.224Z,3.00
2023-11-05T19:44:15.696Z,2.83
2023-11-05T19:46:44.964Z,2.83
2023-11-05T19:49:13.338Z,2.60
2023-11-05T19:51:43.215Z,3.00
2023-11-05T19:54:11.872Z,3.10
2023-11-05T19:56:40.193Z,3.77
2023-11-05T19:59:08.727Z,2.90
2023-11-05T20:01:37.711Z,3.30
2023-11-05T20:04:05.863Z,3.00
2023-11-05T20:06:34.164Z,4.37
2023-11-05T20:09:03.838Z,5.27
2023-11-05T20:11:32.148Z,7.13
2023-11-05T20:14:02.296Z,3.53
2023-11-05T20:16:30.738Z,3.60
2023-11-05T20:18:59.389Z,3.63
2023-11-05T20:21:27.661Z,3.50
2023-11-05T20:23:55.929Z,4.53
2023-11-05T20:26:25.852Z,2.90
2023-11-05T20:28:54.136Z,4.20
2023-11-05T20:31:22.781Z,3.53
2023-11-05T20:33:51.583Z,2.50
2023-11-05T20:36:20.549Z,3.13
2023-11-05T20:38:48.846Z,3.37
2023-11-05T20:41:17.131Z,2.63
2023-11-05T20:43:49.089Z,2.80
2023-11-05T20:46:17.792Z,2.73
2023-11-05T20:48:46.578Z,2.50
2023-11-05T20:51:18.677Z,3.63
2023-11-05T20:53:47.219Z,2.80
2023-11-05T20:56:16.278Z,2.70
2023-11-05T20:58:46.265Z,3.00
2023-11-05T21:01:15.447Z,2.53
2023-11-05T21:03:43.775Z,2.60
2023-11-05T21:06:13.615Z,2.57
2023-11-05T21:08:42.766Z,2.50
2023-11-05T21:11:11.077Z,2.43
2023-11-05T21:13:39.413Z,2.23
2023-11-05T21:16:09.454Z,2.70
2023-11-05T21:18:37.832Z,2.30
2023-11-05T21:21:06.671Z,2.27
2023-11-05T21:23:35.042Z,2.57
2023-11-05T21:26:03.350Z,2.60
2023-11-05T21:28:31.621Z,2.07
2023-11-05T21:31:02.711Z,2.20
2023-11-05T21:33:33.230Z,2.10
2023-11-05T21:36:01.483Z,2.27
2023-11-05T21:38:30.534Z,2.27
2023-11-05T21:40:58.843Z,2.20
2023-11-05T21:43:27.097Z,2.00
2023-11-05T21:46:02.701Z,2.00
2023-11-05T21:48:40.132Z,1.60
2023-11-05T21:51:08.963Z,1.70
2023-11-05T21:53:37.233Z,1.73
2023-11-05T21:56:06.598Z,1.27
2023-11-05T21:58:35.057Z,1.47
2023-11-05T22:01:02.492Z,1.40
2023-11-05T22:03:31.116Z,1.57
2023-11-05T22:06:01.221Z,1.57
2023-11-05T22:08:29.540Z,1.50
2023-11-05T22:10:57.836Z,1.20
2023-11-05T22:13:26.122Z,1.10
2023-11-05T22:15:54.815Z,1.20
2023-11-05T22:18:23.201Z,1.40
2023-11-05T22:20:54.168Z,1.00
2023-11-05T22:23:25.496Z,1.30
2023-11-05T22:25:54.064Z,1.27
2023-11-05T22:28:22.394Z,1.00
2023-11-05T22:30:51.983Z,1.10
2023-11-05T22:33:21.560Z,1.07
2023-11-05T22:35:50.011Z,1.20
2023-11-05T22:38:18.386Z,1.63
2023-11-05T22:40:48.062Z,2.13
2023-11-05T22:43:16.352Z,15.60
2023-11-05T22:45:44.750Z,12.37
2023-11-05T22:48:13.086Z,2.03
2023-11-05T22:50:41.354Z,1.70
2023-11-05T22:53:09.681Z,1.70
2023-11-05T22:55:38.954Z,3.77
2023-11-05T22:58:10.612Z,1.60
2023-11-05T23:00:50.596Z,1.57
2023-11-05T23:03:19.391Z,1.37
2023-11-05T23:05:48.845Z,14.90
2023-11-05T23:08:17.669Z,1.30
2023-11-05T23:10:46.378Z,1.00
2023-11-05T23:13:16.026Z,1.00
2023-11-05T23:15:44.279Z,1.07
2023-11-05T23:18:12.635Z,1.47
2023-11-05T23:20:40.905Z,1.50
2023-11-05T23:23:09.289Z,6.50
2023-11-05T23:25:40.871Z,1.83
2023-11-05T23:28:09.637Z,1.30
2023-11-05T23:30:39.281Z,1.20
2023-11-05T23:33:07.617Z,1.20
2023-11-05T23:35:35.868Z,1.40
2023-11-05T23:38:04.294Z,1.47
2023-11-05T23:40:33.585Z,2.10
2023-11-05T23:43:01.857Z,1.53
2023-11-05T23:45:30.086Z,3.87
2023-11-05T23:47:59.859Z,1.57
2023-11-05T23:50:28.283Z,1.63
2023-11-05T23:52:56.544Z,1.70
2023-11-05T23:55:25.905Z,1.17
2023-11-05T23:57:54.258Z,2.13
